createdAt,value
2018-05-29T00:00:00.082Z,0
2018-05-29T00:00:26.223Z,0
2018-05-29T00:00:52.389Z,0
2018-05-29T00:01:18.527Z,0
2018-05-29T00:01:44.663Z,0
2018-05-29T00:02:10.810Z,0
2018-05-29T00:02:36.953Z,0
2018-05-29T00:03:03.095Z,0
2018-05-29T00:03:29.229Z,0
2018-05-29T00:03:55.377Z,0
2018-05-29T00:04:21.519Z,0
2018-05-29T00:04:47.661Z,0
2018-05-29T00:05:13.805Z,0
2018-05-29T00:05:39.944Z,0
2018-05-29T00:06:06.091Z,0
2018-05-29T00:06:32.241Z,0
2018-05-29T00:06:58.376Z,0
2018-05-29T00:07:24.536Z,0
2018-05-29T00:07:50.709Z,0
2018-05-29T00:08:16.853Z,0
2018-05-29T00:08:42.992Z,0
2018-05-29T00:09:09.138Z,0
2018-05-29T00:09:35.306Z,0
2018-05-29T00:10:01.545Z,0
2018-05-29T00:10:27.743Z,0
2018-05-29T00:10:53.833Z,0
2018-05-29T00:11:19.993Z,0
2018-05-29T00:11:46.147Z,0
2018-05-29T00:12:12.308Z,0
2018-05-29T00:12:38.452Z,0
2018-05-29T00:13:04.592Z,0
2018-05-29T00:13:30.736Z,0
2018-05-29T00:13:56.876Z,0
2018-05-29T00:14:23.021Z,0
2018-05-29T00:14:49.169Z,0
2018-05-29T00:15:15.312Z,0
2018-05-29T00:15:41.466Z,0
2018-05-29T00:16:07.626Z,0
2018-05-29T00:16:33.778Z,0
2018-05-29T00:16:59.951Z,0
2018-05-29T00:17:26.106Z,0
2018-05-29T00:17:52.251Z,0
2018-05-29T00:18:18.415Z,0
2018-05-29T00:18:44.579Z,0
2018-05-29T00:19:10.753Z,0
2018-05-29T00:19:36.925Z,0
2018-05-29T00:20:03.068Z,0
2018-05-29T00:20:29.205Z,0
2018-05-29T00:20:55.391Z,0
2018-05-29T00:21:21.514Z,0
2018-05-29T00:21:47.735Z,0
2018-05-29T00:22:14.100Z,0
2018-05-29T00:22:40.335Z,0
2018-05-29T00:23:06.477Z,0
2018-05-29T00:23:32.794Z,0
2018-05-29T00:23:58.911Z,0
2018-05-29T00:24:25.078Z,0
2018-05-29T00:24:51.236Z,0
2018-05-29T00:25:17.404Z,0
2018-05-29T00:25:43.544Z,0
2018-05-29T00:26:09.693Z,0
2018-05-29T00:26:35.880Z,0
2018-05-29T00:27:02.023Z,0
2018-05-29T00:27:28.218Z,0
2018-05-29T00:27:54.410Z,0
2018-05-29T00:28:20.573Z,0
2018-05-29T00:28:46.715Z,0
2018-05-29T00:29:12.863Z,0
2018-05-29T00:29:39.038Z,0
2018-05-29T00:30:05.173Z,0
2018-05-29T00:30:31.354Z,0
2018-05-29T00:30:57.548Z,0
2018-05-29T00:31:23.711Z,0
2018-05-29T00:31:49.890Z,0
2018-05-29T00:32:16.076Z,0
2018-05-29T00:32:42.230Z,0
2018-05-29T00:33:08.373Z,0
2018-05-29T00:33:34.544Z,0
2018-05-29T00:34:00.720Z,0
2018-05-29T00:34:26.864Z,0
2018-05-29T00:34:53.005Z,0
2018-05-29T00:35:19.150Z,0
2018-05-29T00:35:45.286Z,0
2018-05-29T00:36:11.428Z,0
2018-05-29T00:36:37.566Z,0
2018-05-29T00:37:03.708Z,0
2018-05-29T00:37:29.848Z,0
2018-05-29T00:37:55.996Z,0
2018-05-29T00:38:22.164Z,0
2018-05-29T00:38:48.299Z,0
2018-05-29T00:39:14.486Z,0
2018-05-29T00:39:40.623Z,0
2018-05-29T00:40:06.777Z,0
2018-05-29T00:40:32.909Z,0
2018-05-29T00:40:59.069Z,0
2018-05-29T00:41:25.207Z,0
2018-05-29T00:41:51.375Z,0
2018-05-29T00:42:17.545Z,0
2018-05-29T00:42:43.706Z,0
2018-05-29T00:43:09.851Z,0
2018-05-29T00:43:36.015Z,0
2018-05-29T00:44:02.156Z,0
2018-05-29T00:44:28.327Z,0
2018-05-29T00:44:54.467Z,0
2018-05-29T00:45:20.600Z,0
2018-05-29T00:45:46.772Z,0
2018-05-29T00:46:12.908Z,0
2018-05-29T00:46:39.055Z,0
2018-05-29T00:47:05.214Z,0
2018-05-29T00:47:31.412Z,0
2018-05-29T00:47:57.546Z,0
2018-05-29T00:48:23.687Z,0
2018-05-29T00:48:49.820Z,0
2018-05-29T00:49:15.991Z,0
2018-05-29T00:49:42.510Z,0
2018-05-29T00:50:10.863Z,0
2018-05-29T00:50:37.605Z,0
2018-05-29T00:51:03.765Z,0
2018-05-29T00:51:29.925Z,0
2018-05-29T00:51:56.077Z,0
2018-05-29T00:52:22.242Z,0
2018-05-29T00:52:48.383Z,0
2018-05-29T00:53:14.520Z,0
2018-05-29T00:53:40.660Z,0
2018-05-29T00:54:06.801Z,0
2018-05-29T00:54:32.962Z,0
2018-05-29T00:54:59.096Z,0
2018-05-29T00:55:25.237Z,0
2018-05-29T00:55:51.399Z,0
2018-05-29T00:56:17.564Z,0
2018-05-29T00:56:43.733Z,0
2018-05-29T00:57:09.876Z,0
2018-05-29T00:57:36.022Z,0
2018-05-29T00:58:02.163Z,0
2018-05-29T00:58:28.301Z,0
2018-05-29T00:58:54.450Z,0
2018-05-29T00:59:20.606Z,0
2018-05-29T00:59:46.750Z,0
2018-05-29T01:00:12.890Z,0
2018-05-29T01:00:39.038Z,0
2018-05-29T01:01:05.171Z,0
2018-05-29T01:01:31.313Z,0
2018-05-29T01:01:57.510Z,0
2018-05-29T01:02:23.651Z,0
2018-05-29T01:02:49.844Z,0
2018-05-29T01:03:16.028Z,0
2018-05-29T01:03:42.175Z,0
2018-05-29T01:04:08.328Z,0
2018-05-29T01:04:34.497Z,0
2018-05-29T01:05:00.648Z,0
2018-05-29T01:05:26.792Z,0
2018-05-29T01:05:52.961Z,0
2018-05-29T01:06:19.097Z,0
2018-05-29T01:06:45.244Z,0
2018-05-29T01:07:11.385Z,0
2018-05-29T01:07:37.520Z,0
2018-05-29T01:08:03.667Z,0
2018-05-29T01:08:29.816Z,0
2018-05-29T01:08:55.949Z,0
2018-05-29T01:09:22.090Z,0
2018-05-29T01:09:48.239Z,0
2018-05-29T01:10:14.378Z,0
2018-05-29T01:10:40.520Z,0
2018-05-29T01:11:06.659Z,0
2018-05-29T01:11:32.801Z,0
2018-05-29T01:11:58.948Z,0
2018-05-29T01:12:25.114Z,0
2018-05-29T01:12:51.252Z,0
2018-05-29T01:13:17.417Z,0
2018-05-29T01:13:43.556Z,0
2018-05-29T01:14:09.703Z,0
2018-05-29T01:14:35.856Z,0
2018-05-29T01:15:02.001Z,0
2018-05-29T01:15:28.202Z,0
2018-05-29T01:15:54.370Z,0
2018-05-29T01:16:20.508Z,0
2018-05-29T01:16:46.653Z,0
2018-05-29T01:17:12.792Z,0
2018-05-29T01:17:38.962Z,0
2018-05-29T01:18:05.100Z,0
2018-05-29T01:18:31.239Z,0
2018-05-29T01:18:57.384Z,0
2018-05-29T01:19:23.557Z,0
2018-05-29T01:19:49.721Z,0
2018-05-29T01:20:15.884Z,0
2018-05-29T01:20:42.012Z,0
2018-05-29T01:21:08.159Z,0
2018-05-29T01:21:34.297Z,0
2018-05-29T01:22:00.436Z,0
2018-05-29T01:22:26.587Z,0
2018-05-29T01:22:52.754Z,0
2018-05-29T01:23:18.919Z,0
2018-05-29T01:23:45.059Z,0
2018-05-29T01:24:11.231Z,0
2018-05-29T01:24:37.384Z,0
2018-05-29T01:25:03.527Z,0
2018-05-29T01:25:29.667Z,0
2018-05-29T01:25:55.813Z,0
2018-05-29T01:26:21.952Z,0
2018-05-29T01:26:48.094Z,0
2018-05-29T01:27:14.242Z,0
2018-05-29T01:27:40.402Z,0
2018-05-29T01:28:06.550Z,0
2018-05-29T01:28:32.713Z,0
2018-05-29T01:28:58.857Z,0
2018-05-29T01:29:24.999Z,0
2018-05-29T01:29:51.138Z,0
2018-05-29T01:30:17.272Z,0
2018-05-29T01:30:43.443Z,0
2018-05-29T01:31:09.588Z,0
2018-05-29T01:31:35.734Z,0
2018-05-29T01:32:01.882Z,0
2018-05-29T01:32:28.020Z,0
2018-05-29T01:32:54.181Z,0
2018-05-29T01:33:20.345Z,0
2018-05-29T01:33:46.491Z,0
2018-05-29T01:34:12.627Z,0
2018-05-29T01:34:38.765Z,0
2018-05-29T01:35:04.912Z,0
2018-05-29T01:35:31.074Z,0
2018-05-29T01:35:57.219Z,0
2018-05-29T01:36:23.388Z,0
2018-05-29T01:36:49.570Z,0
2018-05-29T01:37:15.709Z,0
2018-05-29T01:37:41.866Z,0
2018-05-29T01:38:08.012Z,0
2018-05-29T01:38:34.183Z,0
2018-05-29T01:39:00.323Z,0
2018-05-29T01:39:26.506Z,0
2018-05-29T01:39:52.654Z,0
2018-05-29T01:40:18.820Z,0
2018-05-29T01:40:44.982Z,0
2018-05-29T01:41:11.110Z,0
2018-05-29T01:41:37.264Z,0
2018-05-29T01:42:03.454Z,0
2018-05-29T01:42:29.604Z,0
2018-05-29T01:42:55.741Z,0
2018-05-29T01:43:21.889Z,0
2018-05-29T01:43:48.026Z,0
2018-05-29T01:44:14.171Z,0
2018-05-29T01:44:40.310Z,0
2018-05-29T01:45:06.455Z,0
2018-05-29T01:45:32.598Z,0
2018-05-29T01:45:58.730Z,0
2018-05-29T01:46:24.879Z,0
2018-05-29T01:46:51.022Z,0
2018-05-29T01:47:17.170Z,0
2018-05-29T01:47:43.334Z,0
2018-05-29T01:48:09.487Z,0
2018-05-29T01:48:35.640Z,0
2018-05-29T01:49:01.812Z,0
2018-05-29T01:49:27.964Z,0
2018-05-29T01:49:54.112Z,0
2018-05-29T01:50:20.248Z,0
2018-05-29T01:50:46.397Z,0
2018-05-29T01:51:12.543Z,0
2018-05-29T01:51:38.681Z,0
2018-05-29T01:52:04.823Z,0
2018-05-29T01:52:30.977Z,0
2018-05-29T01:52:57.114Z,0
2018-05-29T01:53:23.247Z,0
2018-05-29T01:53:49.397Z,0
2018-05-29T01:54:15.537Z,0
2018-05-29T01:54:41.728Z,0
2018-05-29T01:55:07.869Z,0
2018-05-29T01:55:34.011Z,0
2018-05-29T01:56:00.178Z,0
2018-05-29T01:56:26.317Z,0
2018-05-29T01:56:52.454Z,0
2018-05-29T01:57:18.600Z,0
2018-05-29T01:57:44.741Z,0
2018-05-29T01:58:10.888Z,0
2018-05-29T01:58:37.032Z,0
2018-05-29T01:59:03.174Z,0
2018-05-29T01:59:29.341Z,0
2018-05-29T01:59:55.477Z,0
2018-05-29T02:00:21.616Z,0
2018-05-29T02:00:47.757Z,0
2018-05-29T02:01:13.931Z,0
2018-05-29T02:01:40.078Z,0
2018-05-29T02:02:06.237Z,0
2018-05-29T02:02:32.408Z,0
2018-05-29T02:02:58.551Z,0
2018-05-29T02:03:24.690Z,0
2018-05-29T02:03:50.858Z,0
2018-05-29T02:04:17.009Z,0
2018-05-29T02:04:43.158Z,0
2018-05-29T02:05:09.298Z,0
2018-05-29T02:05:35.462Z,0
2018-05-29T02:06:01.610Z,0
2018-05-29T02:06:27.798Z,0
2018-05-29T02:06:53.956Z,0
2018-05-29T02:07:20.082Z,0
2018-05-29T02:07:46.259Z,0
2018-05-29T02:08:12.394Z,0
2018-05-29T02:08:38.535Z,0
2018-05-29T02:09:04.676Z,0
2018-05-29T02:09:30.857Z,0
2018-05-29T02:09:57.015Z,0
2018-05-29T02:10:23.231Z,0
2018-05-29T02:10:49.390Z,0
2018-05-29T02:11:15.520Z,0
2018-05-29T02:11:41.660Z,0
2018-05-29T02:12:07.799Z,0
2018-05-29T02:12:33.950Z,0
2018-05-29T02:13:00.116Z,0
2018-05-29T02:13:26.277Z,0
2018-05-29T02:13:52.428Z,0
2018-05-29T02:14:18.571Z,0
2018-05-29T02:14:44.750Z,0
2018-05-29T02:15:10.924Z,0
2018-05-29T02:15:37.081Z,0
2018-05-29T02:16:03.218Z,0
2018-05-29T02:16:29.387Z,0
2018-05-29T02:16:55.529Z,0
2018-05-29T02:17:21.672Z,0
2018-05-29T02:17:47.840Z,0
2018-05-29T02:18:13.975Z,0
2018-05-29T02:18:40.155Z,0
2018-05-29T02:19:06.363Z,0
2018-05-29T02:19:32.504Z,0
2018-05-29T02:19:58.647Z,0
2018-05-29T02:20:24.795Z,0
2018-05-29T02:20:50.937Z,0
2018-05-29T02:21:17.073Z,0
2018-05-29T02:21:43.218Z,0
2018-05-29T02:22:09.385Z,0
2018-05-29T02:22:35.533Z,0
2018-05-29T02:23:01.673Z,0
2018-05-29T02:23:27.906Z,0
2018-05-29T02:23:54.036Z,0
2018-05-29T02:24:20.183Z,0
2018-05-29T02:24:46.328Z,0
2018-05-29T02:25:12.523Z,0
2018-05-29T02:25:38.665Z,0
2018-05-29T02:26:04.812Z,0
2018-05-29T02:26:30.966Z,0
2018-05-29T02:26:57.110Z,0
2018-05-29T02:27:23.305Z,0
2018-05-29T02:27:49.480Z,0
2018-05-29T02:28:15.612Z,0
2018-05-29T02:28:41.779Z,0
2018-05-29T02:29:07.915Z,0
2018-05-29T02:29:34.060Z,0
2018-05-29T02:30:00.196Z,0
2018-05-29T02:30:26.412Z,0
2018-05-29T02:30:52.543Z,0
2018-05-29T02:31:18.702Z,0
2018-05-29T02:31:44.933Z,0
2018-05-29T02:32:11.080Z,0
2018-05-29T02:32:37.264Z,0
2018-05-29T02:33:03.465Z,0
2018-05-29T02:33:29.600Z,0
2018-05-29T02:33:55.764Z,0
2018-05-29T02:34:21.898Z,0
2018-05-29T02:34:48.063Z,0
2018-05-29T02:35:14.204Z,0
2018-05-29T02:35:40.379Z,0
2018-05-29T02:36:06.579Z,0
2018-05-29T02:36:32.742Z,0
2018-05-29T02:36:58.902Z,0
2018-05-29T02:37:25.072Z,0
2018-05-29T02:37:51.235Z,0
2018-05-29T02:38:17.387Z,0
2018-05-29T02:38:43.547Z,0
2018-05-29T02:39:09.729Z,0
2018-05-29T02:39:35.884Z,0
2018-05-29T02:40:02.055Z,0
2018-05-29T02:40:28.268Z,0
2018-05-29T02:40:54.453Z,0
2018-05-29T02:41:20.653Z,0
2018-05-29T02:41:46.793Z,0
2018-05-29T02:42:12.932Z,0
2018-05-29T02:42:39.102Z,0
2018-05-29T02:43:05.241Z,0
2018-05-29T02:43:31.404Z,0
2018-05-29T02:43:57.604Z,0
2018-05-29T02:44:23.789Z,0
2018-05-29T02:44:49.930Z,0
2018-05-29T02:45:16.137Z,0
2018-05-29T02:45:42.271Z,0
2018-05-29T02:46:08.505Z,0
2018-05-29T02:46:34.634Z,0
2018-05-29T02:47:00.847Z,0
2018-05-29T02:47:26.988Z,0
2018-05-29T02:47:53.175Z,0
2018-05-29T02:48:19.367Z,0
2018-05-29T02:48:45.549Z,0
2018-05-29T02:49:11.749Z,0
2018-05-29T02:49:37.884Z,0
2018-05-29T02:50:04.029Z,0
2018-05-29T02:50:30.170Z,0
2018-05-29T02:50:56.321Z,0
2018-05-29T02:51:22.461Z,0
2018-05-29T02:51:48.654Z,0
2018-05-29T02:52:14.805Z,0
2018-05-29T02:52:40.980Z,0
2018-05-29T02:53:07.152Z,0
2018-05-29T02:53:33.290Z,0
2018-05-29T02:53:59.430Z,0
2018-05-29T02:54:25.589Z,0
2018-05-29T02:54:51.733Z,0
2018-05-29T02:55:17.875Z,0
2018-05-29T02:55:44.033Z,0
2018-05-29T02:56:10.170Z,0
2018-05-29T02:56:36.320Z,0
2018-05-29T02:57:02.464Z,0
2018-05-29T02:57:28.601Z,0
2018-05-29T02:57:54.726Z,0
2018-05-29T02:58:20.904Z,0
2018-05-29T02:58:47.051Z,0
2018-05-29T02:59:13.199Z,0
2018-05-29T02:59:39.335Z,0
2018-05-29T03:00:05.504Z,0
2018-05-29T03:00:31.663Z,0
2018-05-29T03:00:57.956Z,0
2018-05-29T03:01:24.186Z,0
2018-05-29T03:01:50.472Z,0
2018-05-29T03:02:16.801Z,0
2018-05-29T03:02:43.150Z,0
2018-05-29T03:03:09.543Z,0
2018-05-29T03:03:35.877Z,0
2018-05-29T03:04:02.438Z,0
2018-05-29T03:04:28.733Z,0
2018-05-29T03:04:54.986Z,0
2018-05-29T03:05:21.173Z,0
2018-05-29T03:05:47.430Z,0
2018-05-29T03:06:13.714Z,5
2018-05-29T03:06:39.854Z,5
2018-05-29T03:07:06.005Z,5
2018-05-29T03:07:32.193Z,5
2018-05-29T03:07:58.344Z,5
2018-05-29T03:08:24.473Z,5
2018-05-29T03:08:50.605Z,5
2018-05-29T03:09:16.745Z,5
2018-05-29T03:09:42.893Z,5
2018-05-29T03:10:09.053Z,5
2018-05-29T03:10:35.188Z,5
2018-05-29T03:11:01.335Z,5
2018-05-29T03:11:27.479Z,5
2018-05-29T03:11:53.619Z,5
2018-05-29T03:12:19.777Z,5
2018-05-29T03:12:45.947Z,5
2018-05-29T03:13:12.111Z,5
2018-05-29T03:13:38.288Z,5
2018-05-29T03:14:04.432Z,5
2018-05-29T03:14:30.576Z,5
2018-05-29T03:14:56.752Z,5
2018-05-29T03:15:22.939Z,5
2018-05-29T03:15:49.102Z,5
2018-05-29T03:16:15.251Z,10
2018-05-29T03:16:41.389Z,10
2018-05-29T03:17:07.542Z,10
2018-05-29T03:17:33.677Z,10
2018-05-29T03:17:59.878Z,10
2018-05-29T03:18:26.007Z,10
2018-05-29T03:18:52.170Z,10
2018-05-29T03:19:18.317Z,10
2018-05-29T03:19:44.457Z,10
2018-05-29T03:20:10.618Z,10
2018-05-29T03:20:36.759Z,10
2018-05-29T03:21:02.925Z,10
2018-05-29T03:21:29.123Z,10
2018-05-29T03:21:55.244Z,10
2018-05-29T03:22:21.387Z,10
2018-05-29T03:22:47.525Z,10
2018-05-29T03:23:13.694Z,10
2018-05-29T03:23:39.837Z,15
2018-05-29T03:24:05.983Z,15
2018-05-29T03:24:32.141Z,15
2018-05-29T03:24:58.306Z,15
2018-05-29T03:25:24.453Z,15
2018-05-29T03:25:50.623Z,15
2018-05-29T03:26:16.777Z,15
2018-05-29T03:26:42.946Z,15
2018-05-29T03:27:09.106Z,15
2018-05-29T03:27:35.271Z,15
2018-05-29T03:28:01.457Z,20
2018-05-29T03:28:27.626Z,20
2018-05-29T03:28:53.766Z,20
2018-05-29T03:29:19.930Z,20
2018-05-29T03:29:46.077Z,20
2018-05-29T03:30:12.242Z,20
2018-05-29T03:30:38.452Z,20
2018-05-29T03:31:04.602Z,20
2018-05-29T03:31:30.768Z,25
2018-05-29T03:31:56.914Z,25
2018-05-29T03:32:23.074Z,25
2018-05-29T03:32:49.212Z,25
2018-05-29T03:33:15.356Z,25
2018-05-29T03:33:41.502Z,25
2018-05-29T03:34:07.665Z,25
2018-05-29T03:34:33.881Z,30
2018-05-29T03:35:00.029Z,30
2018-05-29T03:35:26.173Z,30
2018-05-29T03:35:52.308Z,30
2018-05-29T03:36:18.478Z,30
2018-05-29T03:36:44.615Z,30
2018-05-29T03:37:10.754Z,35
2018-05-29T03:37:36.896Z,35
2018-05-29T03:38:03.074Z,35
2018-05-29T03:38:29.223Z,35
2018-05-29T03:38:55.414Z,35
2018-05-29T03:39:21.551Z,35
2018-05-29T03:39:47.721Z,40
2018-05-29T03:40:13.866Z,40
2018-05-29T03:40:40.023Z,40
2018-05-29T03:41:06.172Z,40
2018-05-29T03:41:32.323Z,40
2018-05-29T03:41:58.458Z,40
2018-05-29T03:42:24.625Z,45
2018-05-29T03:42:50.797Z,45
2018-05-29T03:43:16.939Z,45
2018-05-29T03:43:43.081Z,45
2018-05-29T03:44:09.215Z,45
2018-05-29T03:44:35.360Z,45
2018-05-29T03:45:01.504Z,45
2018-05-29T03:45:27.647Z,50
2018-05-29T03:45:53.788Z,50
2018-05-29T03:46:19.954Z,50
2018-05-29T03:46:46.145Z,50
2018-05-29T03:47:12.311Z,50
2018-05-29T03:47:38.497Z,50
2018-05-29T03:48:04.627Z,50
2018-05-29T03:48:30.796Z,55
2018-05-29T03:48:56.957Z,55
2018-05-29T03:49:23.143Z,55
2018-05-29T03:49:49.314Z,55
2018-05-29T03:50:15.449Z,55
2018-05-29T03:50:41.617Z,55
2018-05-29T03:51:07.755Z,55
2018-05-29T03:51:33.951Z,55
2018-05-29T03:52:00.091Z,55
2018-05-29T03:52:26.230Z,55
2018-05-29T03:52:52.551Z,60
2018-05-29T03:53:18.682Z,60
2018-05-29T03:53:44.952Z,60
2018-05-29T03:54:11.205Z,60
2018-05-29T03:54:37.612Z,60
2018-05-29T03:55:04.141Z,60
2018-05-29T03:55:30.380Z,60
2018-05-29T03:55:56.556Z,65
2018-05-29T03:56:22.795Z,65
2018-05-29T03:56:49.042Z,65
2018-05-29T03:57:15.217Z,65
2018-05-29T03:57:41.359Z,65
2018-05-29T03:58:07.501Z,65
2018-05-29T03:58:33.671Z,70
2018-05-29T03:58:59.814Z,70
2018-05-29T03:59:26.004Z,70
2018-05-29T03:59:52.146Z,70
2018-05-29T04:00:18.277Z,70
2018-05-29T04:00:44.468Z,70
2018-05-29T04:01:10.608Z,70
2018-05-29T04:01:36.780Z,75
2018-05-29T04:02:02.974Z,75
2018-05-29T04:02:29.145Z,75
2018-05-29T04:02:55.328Z,75
2018-05-29T04:03:21.505Z,75
2018-05-29T04:03:47.648Z,80
2018-05-29T04:04:13.784Z,80
2018-05-29T04:04:39.930Z,80
2018-05-29T04:05:06.066Z,80
2018-05-29T04:05:32.234Z,80
2018-05-29T04:05:58.380Z,80
2018-05-29T04:06:24.523Z,80
2018-05-29T04:06:50.679Z,80
2018-05-29T04:07:16.844Z,85
2018-05-29T04:07:42.979Z,85
2018-05-29T04:08:09.130Z,85
2018-05-29T04:08:35.301Z,85
2018-05-29T04:09:01.505Z,85
2018-05-29T04:09:27.763Z,85
2018-05-29T04:09:53.846Z,85
2018-05-29T04:10:19.964Z,90
2018-05-29T04:10:46.111Z,90
2018-05-29T04:11:12.247Z,90
2018-05-29T04:11:38.451Z,90
2018-05-29T04:12:04.610Z,90
2018-05-29T04:12:30.739Z,90
2018-05-29T04:12:56.876Z,90
2018-05-29T04:13:23.102Z,90
2018-05-29T04:13:49.315Z,90
2018-05-29T04:14:15.461Z,95
2018-05-29T04:14:41.623Z,95
2018-05-29T04:15:07.763Z,95
2018-05-29T04:15:33.916Z,95
2018-05-29T04:16:00.073Z,95
2018-05-29T04:16:26.208Z,95
2018-05-29T04:16:52.350Z,95
2018-05-29T04:17:18.490Z,95
2018-05-29T04:17:44.639Z,100
2018-05-29T04:18:10.779Z,100
2018-05-29T04:18:36.969Z,100
2018-05-29T04:19:03.134Z,100
2018-05-29T04:19:29.272Z,100
2018-05-29T04:19:55.416Z,100
2018-05-29T04:20:21.558Z,100
2018-05-29T04:20:47.700Z,105
2018-05-29T04:21:13.868Z,105
2018-05-29T04:21:40.036Z,105
2018-05-29T04:22:06.156Z,105
2018-05-29T04:22:32.305Z,105
2018-05-29T04:22:58.467Z,105
2018-05-29T04:23:24.669Z,110
2018-05-29T04:23:50.817Z,110
2018-05-29T04:24:16.958Z,110
2018-05-29T04:24:43.108Z,115
2018-05-29T04:25:09.256Z,115
2018-05-29T04:25:35.393Z,115
2018-05-29T04:26:01.536Z,120
2018-05-29T04:26:27.773Z,125
2018-05-29T04:26:53.934Z,125
2018-05-29T04:27:20.070Z,125
2018-05-29T04:27:46.251Z,125
2018-05-29T04:28:12.385Z,120
2018-05-29T04:28:38.529Z,120
2018-05-29T04:29:04.669Z,120
2018-05-29T04:29:30.813Z,120
2018-05-29T04:29:56.949Z,125
2018-05-29T04:30:23.121Z,125
2018-05-29T04:30:49.263Z,125
2018-05-29T04:31:15.405Z,125
2018-05-29T04:31:41.546Z,125
2018-05-29T04:32:07.692Z,130
2018-05-29T04:32:33.830Z,130
2018-05-29T04:32:59.980Z,130
2018-05-29T04:33:26.144Z,130
2018-05-29T04:33:52.284Z,135
2018-05-29T04:34:18.454Z,135
2018-05-29T04:34:44.596Z,135
2018-05-29T04:35:10.743Z,135
2018-05-29T04:35:36.878Z,140
2018-05-29T04:36:03.020Z,140
2018-05-29T04:36:29.163Z,145
2018-05-29T04:36:55.359Z,140
2018-05-29T04:37:21.488Z,145
2018-05-29T04:37:47.663Z,145
2018-05-29T04:38:13.806Z,145
2018-05-29T04:38:39.977Z,150
2018-05-29T04:39:06.113Z,150
2018-05-29T04:39:32.261Z,145
2018-05-29T04:39:58.428Z,150
2018-05-29T04:40:24.589Z,150
2018-05-29T04:40:50.734Z,155
2018-05-29T04:41:16.876Z,155
2018-05-29T04:41:43.043Z,160
2018-05-29T04:42:09.207Z,165
2018-05-29T04:42:35.346Z,180
2018-05-29T04:43:01.508Z,200
2018-05-29T04:43:27.647Z,230
2018-05-29T04:43:53.796Z,255
2018-05-29T04:44:19.934Z,285
2018-05-29T04:44:46.102Z,305
2018-05-29T04:45:12.246Z,315
2018-05-29T04:45:38.389Z,320
2018-05-29T04:46:04.530Z,320
2018-05-29T04:46:30.670Z,320
2018-05-29T04:46:56.824Z,325
2018-05-29T04:47:23.007Z,335
2018-05-29T04:47:49.146Z,340
2018-05-29T04:48:15.319Z,345
2018-05-29T04:48:41.464Z,350
2018-05-29T04:49:07.602Z,350
2018-05-29T04:49:33.796Z,360
2018-05-29T04:49:59.937Z,370
2018-05-29T04:50:26.083Z,370
2018-05-29T04:50:52.253Z,375
2018-05-29T04:51:18.406Z,355
2018-05-29T04:51:44.572Z,335
2018-05-29T04:52:10.744Z,305
2018-05-29T04:52:36.886Z,280
2018-05-29T04:53:03.664Z,255
2018-05-29T04:53:29.809Z,240
2018-05-29T04:53:55.992Z,220
2018-05-29T04:54:22.201Z,215
2018-05-29T04:54:48.348Z,210
2018-05-29T04:55:14.484Z,205
2018-05-29T04:55:40.627Z,205
2018-05-29T04:56:06.764Z,205
2018-05-29T04:56:32.915Z,205
2018-05-29T04:56:59.065Z,205
2018-05-29T04:57:25.230Z,205
2018-05-29T04:57:51.374Z,205
2018-05-29T04:58:17.519Z,205
2018-05-29T04:58:43.661Z,205
2018-05-29T04:59:09.803Z,205
2018-05-29T04:59:35.978Z,210
2018-05-29T05:00:02.113Z,210
2018-05-29T05:00:28.268Z,210
2018-05-29T05:00:54.430Z,210
2018-05-29T05:01:20.575Z,210
2018-05-29T05:01:46.720Z,210
2018-05-29T05:02:12.869Z,215
2018-05-29T05:02:39.038Z,210
2018-05-29T05:03:05.173Z,210
2018-05-29T05:03:31.340Z,210
2018-05-29T05:03:57.481Z,210
2018-05-29T05:04:23.619Z,215
2018-05-29T05:04:49.784Z,215
2018-05-29T05:05:15.926Z,220
2018-05-29T05:05:42.066Z,215
2018-05-29T05:06:08.215Z,215
2018-05-29T05:06:34.376Z,220
2018-05-29T05:07:00.545Z,220
2018-05-29T05:07:26.689Z,220
2018-05-29T05:07:52.883Z,220
2018-05-29T05:08:19.022Z,220
2018-05-29T05:08:45.196Z,220
2018-05-29T05:09:11.359Z,220
2018-05-29T05:09:37.499Z,225
2018-05-29T05:10:03.645Z,225
2018-05-29T05:10:29.779Z,225
2018-05-29T05:10:55.921Z,230
2018-05-29T05:11:22.055Z,225
2018-05-29T05:11:48.203Z,225
2018-05-29T05:12:14.346Z,230
2018-05-29T05:12:40.487Z,230
2018-05-29T05:13:06.629Z,230
2018-05-29T05:13:32.762Z,235
2018-05-29T05:13:58.935Z,235
2018-05-29T05:14:25.072Z,235
2018-05-29T05:14:51.219Z,240
2018-05-29T05:15:17.355Z,240
2018-05-29T05:15:43.501Z,240
2018-05-29T05:16:09.636Z,245
2018-05-29T05:16:35.779Z,245
2018-05-29T05:17:01.925Z,245
2018-05-29T05:17:28.064Z,245
2018-05-29T05:17:54.205Z,250
2018-05-29T05:18:20.349Z,250
2018-05-29T05:18:46.486Z,250
2018-05-29T05:19:12.637Z,250
2018-05-29T05:19:38.801Z,250
2018-05-29T05:20:04.970Z,250
2018-05-29T05:20:31.108Z,255
2018-05-29T05:20:57.250Z,255
2018-05-29T05:21:23.402Z,255
2018-05-29T05:21:49.568Z,255
2018-05-29T05:22:15.729Z,255
2018-05-29T05:22:41.901Z,255
2018-05-29T05:23:08.045Z,260
2018-05-29T05:23:34.185Z,260
2018-05-29T05:24:00.352Z,265
2018-05-29T05:24:26.517Z,265
2018-05-29T05:24:52.661Z,265
2018-05-29T05:25:18.806Z,265
2018-05-29T05:25:44.949Z,270
2018-05-29T05:26:11.101Z,270
2018-05-29T05:26:37.284Z,270
2018-05-29T05:27:03.438Z,275
2018-05-29T05:27:29.573Z,275
2018-05-29T05:27:55.738Z,275
2018-05-29T05:28:21.883Z,275
2018-05-29T05:28:48.041Z,280
2018-05-29T05:29:14.170Z,280
2018-05-29T05:29:40.308Z,280
2018-05-29T05:30:06.493Z,280
2018-05-29T05:30:32.622Z,280
2018-05-29T05:30:58.785Z,285
2018-05-29T05:31:24.926Z,285
2018-05-29T05:31:51.073Z,285
2018-05-29T05:32:17.219Z,285
2018-05-29T05:32:43.358Z,285
2018-05-29T05:33:09.502Z,285
2018-05-29T05:33:35.646Z,290
2018-05-29T05:34:01.791Z,290
2018-05-29T05:34:27.929Z,290
2018-05-29T05:34:54.064Z,290
2018-05-29T05:35:20.244Z,290
2018-05-29T05:35:46.346Z,295
2018-05-29T05:36:12.533Z,295
2018-05-29T05:36:38.705Z,295
2018-05-29T05:37:04.838Z,295
2018-05-29T05:37:30.985Z,295
2018-05-29T05:37:57.124Z,295
2018-05-29T05:38:23.270Z,295
2018-05-29T05:38:49.405Z,295
2018-05-29T05:39:15.556Z,300
2018-05-29T05:39:41.717Z,300
2018-05-29T05:40:07.905Z,300
2018-05-29T05:40:34.047Z,300
2018-05-29T05:41:00.192Z,300
2018-05-29T05:41:26.327Z,300
2018-05-29T05:41:52.474Z,305
2018-05-29T05:42:18.608Z,305
2018-05-29T05:42:44.749Z,305
2018-05-29T05:43:10.894Z,305
2018-05-29T05:43:37.036Z,305
2018-05-29T05:44:03.181Z,305
2018-05-29T05:44:29.318Z,305
2018-05-29T05:44:55.469Z,310
2018-05-29T05:45:21.631Z,310
2018-05-29T05:45:47.770Z,310
2018-05-29T05:46:13.942Z,310
2018-05-29T05:46:40.082Z,310
2018-05-29T05:47:06.277Z,310
2018-05-29T05:47:32.435Z,310
2018-05-29T05:47:58.582Z,320
2018-05-29T05:48:24.719Z,315
2018-05-29T05:48:50.869Z,315
2018-05-29T05:49:17.004Z,315
2018-05-29T05:49:43.146Z,315
2018-05-29T05:50:09.306Z,315
2018-05-29T05:50:35.448Z,315
2018-05-29T05:51:01.611Z,315
2018-05-29T05:51:27.760Z,315
2018-05-29T05:51:53.905Z,320
2018-05-29T05:52:20.050Z,320
2018-05-29T05:52:46.246Z,320
2018-05-29T05:53:12.327Z,320
2018-05-29T05:53:38.472Z,320
2018-05-29T05:54:04.626Z,320
2018-05-29T05:54:30.771Z,325
2018-05-29T05:54:56.909Z,325
2018-05-29T05:55:23.053Z,325
2018-05-29T05:55:49.187Z,325
2018-05-29T05:56:15.336Z,330
2018-05-29T05:56:41.483Z,330
2018-05-29T05:57:07.655Z,330
2018-05-29T05:57:33.818Z,330
2018-05-29T05:57:59.981Z,330
2018-05-29T05:58:26.150Z,335
2018-05-29T05:58:52.280Z,335
2018-05-29T05:59:18.427Z,340
2018-05-29T05:59:44.562Z,335
2018-05-29T06:00:10.702Z,335
2018-05-29T06:00:36.852Z,335
2018-05-29T06:01:02.992Z,340
2018-05-29T06:01:29.187Z,345
2018-05-29T06:01:55.347Z,345
2018-05-29T06:02:21.490Z,345
2018-05-29T06:02:47.636Z,345
2018-05-29T06:03:13.802Z,345
2018-05-29T06:03:39.973Z,345
2018-05-29T06:04:06.132Z,350
2018-05-29T06:04:32.269Z,350
2018-05-29T06:04:58.420Z,350
2018-05-29T06:05:24.566Z,350
2018-05-29T06:05:50.704Z,350
2018-05-29T06:06:16.851Z,350
2018-05-29T06:06:42.989Z,355
2018-05-29T06:07:09.165Z,355
2018-05-29T06:07:35.303Z,355
2018-05-29T06:08:01.438Z,355
2018-05-29T06:08:27.580Z,355
2018-05-29T06:08:53.730Z,355
2018-05-29T06:09:19.887Z,360
2018-05-29T06:09:46.037Z,360
2018-05-29T06:10:12.190Z,360
2018-05-29T06:10:38.359Z,360
2018-05-29T06:11:04.520Z,360
2018-05-29T06:11:30.670Z,365
2018-05-29T06:11:56.818Z,370
2018-05-29T06:12:22.963Z,365
2018-05-29T06:12:49.105Z,365
2018-05-29T06:13:15.249Z,365
2018-05-29T06:13:41.394Z,370
2018-05-29T06:14:07.539Z,370
2018-05-29T06:14:33.680Z,370
2018-05-29T06:14:59.822Z,370
2018-05-29T06:15:25.996Z,370